createdAt,value
2019-05-17T00:01:28.920Z,24.45
2019-05-17T00:03:58.696Z,24.47
2019-05-17T00:06:28.747Z,23.20
2019-05-17T00:08:58.851Z,24.92
2019-05-17T00:11:28.710Z,24.82
2019-05-17T00:13:58.740Z,25.72
2019-05-17T00:16:28.911Z,24.65
2019-05-17T00:18:59.201Z,24.55
2019-05-17T00:21:28.881Z,23.92
2019-05-17T00:23:58.907Z,24.35
2019-05-17T00:26:29.016Z,24.85
2019-05-17T00:28:59.048Z,26.55
2019-05-17T00:31:29.042Z,26.52
2019-05-17T00:33:59.080Z,25.43
2019-05-17T00:36:29.287Z,24.07
2019-05-17T00:38:59.113Z,24.02
2019-05-17T00:41:29.117Z,24.10
2019-05-17T00:43:59.163Z,25.00
2019-05-17T00:46:29.196Z,23.52
2019-05-17T00:48:59.600Z,24.50
2019-05-17T00:51:29.275Z,23.18
2019-05-17T00:53:59.352Z,23.77
2019-05-17T00:56:29.647Z,24.98
2019-05-17T00:59:18.737Z,24.43
2019-05-17T01:01:48.166Z,25.10
2019-05-17T01:04:17.531Z,24.00
2019-05-17T01:06:47.084Z,23.77
2019-05-17T01:09:17.167Z,23.00
2019-05-17T01:11:47.505Z,23.33
2019-05-17T01:14:17.708Z,23.20
2019-05-17T01:16:47.642Z,23.87
2019-05-17T01:19:16.955Z,23.37
2019-05-17T01:21:47.502Z,24.52
2019-05-17T01:24:17.439Z,24.10
2019-05-17T01:26:47.076Z,24.13
2019-05-17T01:29:17.447Z,25.05
2019-05-17T01:31:47.642Z,24.03
2019-05-17T01:34:17.025Z,25.70
2019-05-17T01:36:46.610Z,23.40
2019-05-17T01:39:20.621Z,23.00
2019-05-17T01:41:47.156Z,25.30
2019-05-17T01:44:16.836Z,24.87
2019-05-17T01:46:46.690Z,24.20
2019-05-17T01:49:16.585Z,25.68
2019-05-17T01:51:46.624Z,25.10
2019-05-17T01:54:17.573Z,25.80
2019-05-17T01:56:47.287Z,25.30
2019-05-17T01:59:17.261Z,24.80
2019-05-17T02:01:48.541Z,25.93
2019-05-17T02:04:17.933Z,25.47
2019-05-17T02:06:47.301Z,25.07
2019-05-17T02:09:33.498Z,23.53
2019-05-17T02:11:47.799Z,24.63
2019-05-17T02:14:17.182Z,25.30
2019-05-17T02:17:06.939Z,24.63
2019-05-17T02:19:37.201Z,23.50
2019-05-17T02:22:07.484Z,24.10
2019-05-17T02:24:37.280Z,24.47
2019-05-17T02:27:06.733Z,23.07
2019-05-17T02:29:36.099Z,23.60
2019-05-17T02:32:05.899Z,21.80
2019-05-17T02:34:35.266Z,20.82
2019-05-17T02:37:04.734Z,19.80
2019-05-17T02:39:51.963Z,19.93
2019-05-17T02:42:05.267Z,19.65
2019-05-17T02:44:34.953Z,18.23
2019-05-17T02:47:04.357Z,17.80
2019-05-17T02:49:33.716Z,17.17
2019-05-17T02:52:03.519Z,18.50
2019-05-17T02:54:33.375Z,16.60
2019-05-17T02:57:03.348Z,17.33
2019-05-17T02:59:34.769Z,17.27
2019-05-17T03:02:04.287Z,17.27
2019-05-17T03:04:33.660Z,14.53
2019-05-17T03:07:03.953Z,15.60
2019-05-17T03:09:33.938Z,14.47
2019-05-17T03:12:03.936Z,14.90
2019-05-17T03:14:33.466Z,14.00
2019-05-17T03:17:03.514Z,13.13
2019-05-17T03:19:35.615Z,13.47
2019-05-17T03:22:07.815Z,12.90
2019-05-17T03:24:35.575Z,12.82
2019-05-17T03:27:05.232Z,13.30
2019-05-17T03:29:34.622Z,14.50
2019-05-17T03:32:08.627Z,14.20
2019-05-17T03:34:37.410Z,13.07
2019-05-17T03:37:07.736Z,13.78
2019-05-17T03:39:37.496Z,15.20
2019-05-17T03:42:06.952Z,14.57
2019-05-17T03:44:36.313Z,14.75
2019-05-17T03:47:06.336Z,13.57
2019-05-17T03:49:39.309Z,14.50
2019-05-17T03:52:07.244Z,14.93
2019-05-17T03:54:36.617Z,13.98
2019-05-17T03:57:06.247Z,14.13
2019-05-17T03:59:35.692Z,13.83
2019-05-17T04:02:05.146Z,13.60
2019-05-17T04:04:53.848Z,13.77
2019-05-17T04:07:23.847Z,13.47
2019-05-17T04:09:53.557Z,12.50
2019-05-17T04:12:23.398Z,11.63
2019-05-17T04:14:53.537Z,10.67
2019-05-17T04:17:23.209Z,11.20
2019-05-17T04:19:53.434Z,11.63
2019-05-17T04:22:23.930Z,9.73
2019-05-17T04:24:53.402Z,9.03
2019-05-17T04:27:23.135Z,7.97
2019-05-17T04:29:53.450Z,8.50
2019-05-17T04:32:23.512Z,7.10
2019-05-17T04:34:53.273Z,8.13
2019-05-17T04:37:23.116Z,7.50
2019-05-17T04:39:53.014Z,8.20
2019-05-17T04:42:22.894Z,7.90
2019-05-17T04:44:52.832Z,8.00
2019-05-17T04:47:23.125Z,7.67
2019-05-17T04:49:53.562Z,8.13
2019-05-17T04:52:23.284Z,8.13
2019-05-17T04:54:53.654Z,7.70
2019-05-17T04:57:23.472Z,6.90
2019-05-17T04:59:52.825Z,6.90
2019-05-17T05:02:23.645Z,6.80
2019-05-17T05:04:53.579Z,6.23
2019-05-17T05:07:23.029Z,7.23
2019-05-17T05:10:13.504Z,6.67
2019-05-17T05:12:44.310Z,7.73
2019-05-17T05:15:14.241Z,6.80
2019-05-17T05:17:43.621Z,7.83
2019-05-17T05:20:13.757Z,7.23
2019-05-17T05:22:43.559Z,7.43
2019-05-17T05:25:14.225Z,7.97
2019-05-17T05:27:43.660Z,7.60
2019-05-17T05:30:13.442Z,7.77
2019-05-17T05:32:45.292Z,7.40
2019-05-17T05:35:14.815Z,7.33
2019-05-17T05:37:44.173Z,7.67
2019-05-17T05:40:13.995Z,6.93
2019-05-17T05:43:02.710Z,6.75
2019-05-17T05:45:32.195Z,7.33
2019-05-17T05:48:01.928Z,6.63
2019-05-17T05:50:32.327Z,7.00
2019-05-17T05:53:02.683Z,6.87
2019-05-17T05:55:32.338Z,7.17
2019-05-17T05:58:02.977Z,7.17
2019-05-17T06:00:33.682Z,7.40
2019-05-17T06:03:04.286Z,6.72
2019-05-17T06:05:33.934Z,6.97
2019-05-17T06:08:03.873Z,6.50
2019-05-17T06:10:33.898Z,6.70
2019-05-17T06:13:03.906Z,6.30
2019-05-17T06:15:34.162Z,6.70
2019-05-17T06:18:03.940Z,6.25
2019-05-17T06:20:33.981Z,6.28
2019-05-17T06:23:04.070Z,6.58
2019-05-17T06:25:34.387Z,6.67
2019-05-17T06:28:04.100Z,6.37
2019-05-17T06:30:34.133Z,5.55
2019-05-17T06:33:04.425Z,5.70
2019-05-17T06:35:34.267Z,6.22
2019-05-17T06:38:04.268Z,5.30
2019-05-17T06:40:34.631Z,5.05
2019-05-17T06:43:04.517Z,4.30
2019-05-17T06:45:34.536Z,4.37
2019-05-17T06:48:04.537Z,4.22
2019-05-17T06:50:34.700Z,4.53
2019-05-17T06:53:04.639Z,4.55
2019-05-17T06:55:34.606Z,4.92
2019-05-17T06:58:04.712Z,4.27
2019-05-17T07:00:34.701Z,4.55
2019-05-17T07:03:04.839Z,4.67
2019-05-17T07:05:36.843Z,4.42
2019-05-17T07:08:06.467Z,4.10
2019-05-17T07:10:36.227Z,4.17
2019-05-17T07:13:05.672Z,4.43
2019-05-17T07:15:44.710Z,3.70
2019-05-17T07:18:06.163Z,4.00
2019-05-17T07:20:35.597Z,4.27
2019-05-17T07:23:05.075Z,3.77
2019-05-17T07:25:35.167Z,3.40
2019-05-17T07:28:05.111Z,3.70
2019-05-17T07:30:35.209Z,3.53
2019-05-17T07:33:05.253Z,6.60
2019-05-17T07:35:35.604Z,5.12
2019-05-17T07:38:05.347Z,4.58
2019-05-17T07:40:35.288Z,4.50
2019-05-17T07:43:10.952Z,3.62
2019-05-17T07:45:37.096Z,3.30
2019-05-17T07:48:06.472Z,2.50
2019-05-17T07:50:35.830Z,2.97
2019-05-17T07:53:05.480Z,2.42
2019-05-17T07:55:35.566Z,2.90
2019-05-17T07:58:05.533Z,2.55
2019-05-17T08:00:35.623Z,2.75
2019-05-17T08:03:05.735Z,2.60
2019-05-17T08:05:35.731Z,2.83
2019-05-17T08:08:05.695Z,3.30
2019-05-17T08:10:35.679Z,3.87
2019-05-17T08:13:05.716Z,2.72
2019-05-17T08:15:35.851Z,2.62
2019-05-17T08:18:05.855Z,2.40
2019-05-17T08:20:35.858Z,2.40
2019-05-17T08:23:05.876Z,2.08
2019-05-17T08:25:49.666Z,1.77
2019-05-17T08:28:06.993Z,2.00
2019-05-17T08:30:36.367Z,2.63
2019-05-17T08:33:07.020Z,3.30
2019-05-17T08:35:36.388Z,3.00
2019-05-17T08:38:06.086Z,3.45
2019-05-17T08:40:36.189Z,1.80
2019-05-17T08:43:06.249Z,1.90
2019-05-17T08:45:36.285Z,1.55
2019-05-17T08:48:06.248Z,1.60
2019-05-17T08:50:36.264Z,2.00
2019-05-17T08:53:06.620Z,4.37
2019-05-17T08:55:36.290Z,2.80
2019-05-17T08:58:06.332Z,2.80
2019-05-17T09:00:36.603Z,1.60
2019-05-17T09:03:06.679Z,1.50
2019-05-17T09:05:36.409Z,1.17
2019-05-17T09:08:06.602Z,1.52
2019-05-17T09:10:36.564Z,1.47
2019-05-17T09:13:06.543Z,1.35
2019-05-17T09:15:36.559Z,1.45
2019-05-17T09:18:25.924Z,1.60
2019-05-17T09:20:55.308Z,1.90
2019-05-17T09:23:24.688Z,1.47
2019-05-17T09:25:54.046Z,1.50
2019-05-17T09:28:23.423Z,1.30
2019-05-17T09:30:52.792Z,1.50
2019-05-17T09:33:22.169Z,1.50
2019-05-17T09:35:51.539Z,1.33
2019-05-17T09:38:20.990Z,1.33
2019-05-17T09:40:50.685Z,1.80
2019-05-17T09:43:20.644Z,1.40
2019-05-17T09:45:50.966Z,1.70
2019-05-17T09:48:20.607Z,1.47
2019-05-17T09:50:50.557Z,2.73
2019-05-17T09:53:20.325Z,2.10
2019-05-17T09:55:50.005Z,2.20
2019-05-17T09:58:21.677Z,1.43
2019-05-17T10:00:50.585Z,1.30
2019-05-17T10:03:23.866Z,1.40
2019-05-17T10:05:51.120Z,1.47
2019-05-17T10:08:20.490Z,1.23
2019-05-17T10:11:04.543Z,1.27
2019-05-17T10:13:20.970Z,1.53
2019-05-17T10:15:50.419Z,1.50
2019-05-17T10:18:20.118Z,1.20
2019-05-17T10:20:50.605Z,1.60
2019-05-17T10:23:20.204Z,1.80
2019-05-17T10:25:49.581Z,1.65
2019-05-17T10:28:20.559Z,1.40
2019-05-17T10:30:52.256Z,1.33
2019-05-17T10:33:21.126Z,1.50
2019-05-17T10:35:50.511Z,1.43
2019-05-17T10:38:19.897Z,1.83
2019-05-17T10:40:50.178Z,1.80
2019-05-17T10:43:20.402Z,1.60
2019-05-17T10:45:49.887Z,1.90
2019-05-17T10:48:21.165Z,1.70
2019-05-17T10:50:50.364Z,1.70
2019-05-17T10:53:20.361Z,1.70
2019-05-17T10:55:49.990Z,1.82
2019-05-17T10:58:21.317Z,1.83
2019-05-17T11:00:50.545Z,1.80
2019-05-17T11:03:20.456Z,1.80
2019-05-17T11:05:50.392Z,1.60
2019-05-17T11:08:19.983Z,1.73
2019-05-17T11:10:50.293Z,2.00
2019-05-17T11:13:19.735Z,2.53
2019-05-17T11:15:49.126Z,2.30
2019-05-17T11:18:18.503Z,2.40
2019-05-17T11:20:48.018Z,2.07
2019-05-17T11:23:17.387Z,2.10
2019-05-17T11:25:46.943Z,1.80
2019-05-17T11:28:16.347Z,1.80
2019-05-17T11:30:45.982Z,2.30
2019-05-17T11:33:15.344Z,2.12
2019-05-17T11:35:44.774Z,2.40
2019-05-17T11:38:14.137Z,2.17
2019-05-17T11:40:43.521Z,2.50
2019-05-17T11:43:12.977Z,1.90
2019-05-17T11:45:42.368Z,1.97
2019-05-17T11:48:17.532Z,2.03
2019-05-17T11:50:46.977Z,2.17
2019-05-17T11:53:16.349Z,2.73
2019-05-17T11:55:45.989Z,2.40
2019-05-17T11:58:15.369Z,2.57
2019-05-17T12:00:44.804Z,3.12
2019-05-17T12:03:14.501Z,2.90
2019-05-17T12:05:44.207Z,2.70
2019-05-17T12:08:13.914Z,3.17
2019-05-17T12:10:43.375Z,3.20
2019-05-17T12:13:13.710Z,3.57
2019-05-17T12:15:45.399Z,3.60
2019-05-17T12:18:14.504Z,3.63
2019-05-17T12:20:44.154Z,3.60
2019-05-17T12:23:13.775Z,3.65
2019-05-17T12:25:43.167Z,3.40
2019-05-17T12:28:12.540Z,3.73
2019-05-17T12:30:41.918Z,4.50
2019-05-17T12:33:11.647Z,5.03
2019-05-17T12:35:41.083Z,5.13
2019-05-17T12:38:10.462Z,4.60
2019-05-17T12:40:39.893Z,5.00
2019-05-17T12:43:09.427Z,4.57
2019-05-17T12:45:39.521Z,4.97
2019-05-17T12:48:09.540Z,5.72
2019-05-17T12:50:39.541Z,5.35
2019-05-17T12:53:09.677Z,5.58
2019-05-17T12:55:39.690Z,6.45
2019-05-17T12:58:09.723Z,6.53
2019-05-17T13:00:39.740Z,7.08
2019-05-17T13:03:09.814Z,6.83
2019-05-17T13:05:39.849Z,7.20
2019-05-17T13:08:10.240Z,8.50
2019-05-17T13:10:39.888Z,8.23
2019-05-17T13:13:10.238Z,7.33
2019-05-17T13:15:39.923Z,7.70
2019-05-17T13:18:10.057Z,7.78
2019-05-17T13:20:39.980Z,7.90
2019-05-17T13:23:10.103Z,7.60
2019-05-17T13:25:40.083Z,8.00
2019-05-17T13:28:10.109Z,8.10
2019-05-17T13:30:40.152Z,9.20
2019-05-17T13:33:10.256Z,9.28
2019-05-17T13:35:40.295Z,9.45
2019-05-17T13:38:10.201Z,8.93
2019-05-17T13:40:40.322Z,9.33
2019-05-17T13:43:10.414Z,9.13
2019-05-17T13:45:43.701Z,9.68
2019-05-17T13:48:11.822Z,10.30
2019-05-17T13:50:41.265Z,10.33
2019-05-17T13:53:10.652Z,10.53
2019-05-17T13:55:40.532Z,10.20
2019-05-17T13:58:10.519Z,10.18
2019-05-17T14:00:40.554Z,9.73
2019-05-17T14:03:10.548Z,10.40
2019-05-17T14:05:40.635Z,10.13
2019-05-17T14:08:10.825Z,10.45
2019-05-17T14:10:40.730Z,11.40
2019-05-17T14:13:10.862Z,11.43
2019-05-17T14:15:40.846Z,10.82
2019-05-17T14:18:10.842Z,10.77
2019-05-17T14:20:46.809Z,11.53
2019-05-17T14:23:16.364Z,11.73
2019-05-17T14:25:45.750Z,11.15
2019-05-17T14:28:15.578Z,12.03
2019-05-17T14:30:44.960Z,11.28
2019-05-17T14:33:14.335Z,12.00
2019-05-17T14:35:43.716Z,11.23
2019-05-17T14:38:13.100Z,11.83
2019-05-17T14:43:13.584Z,12.10
2019-05-17T14:45:42.958Z,11.63
2019-05-17T14:48:12.328Z,11.03
2019-05-17T14:50:42.000Z,11.33
2019-05-17T14:53:11.410Z,11.87
2019-05-17T14:55:41.302Z,13.15
2019-05-17T14:58:11.773Z,12.33
2019-05-17T15:00:41.440Z,12.53
2019-05-17T15:03:11.453Z,13.03
2019-05-17T15:05:41.488Z,12.63
2019-05-17T15:08:11.825Z,13.53
2019-05-17T15:10:41.824Z,13.30
2019-05-17T15:13:11.519Z,12.60
2019-05-17T15:15:41.535Z,13.83
2019-05-17T15:18:11.563Z,13.95
2019-05-17T15:20:41.664Z,13.72
2019-05-17T15:23:11.708Z,14.25
2019-05-17T15:25:41.700Z,14.07
2019-05-17T15:28:11.661Z,15.00
2019-05-17T15:30:41.887Z,16.07
2019-05-17T15:33:11.909Z,14.87
2019-05-17T15:35:41.777Z,14.80
2019-05-17T15:38:11.906Z,14.47
2019-05-17T15:40:42.243Z,15.28
2019-05-17T15:43:12.338Z,15.28
2019-05-17T15:45:42.453Z,15.93
2019-05-17T15:48:12.420Z,16.75
2019-05-17T15:50:42.156Z,15.30
2019-05-17T15:53:12.472Z,15.67
2019-05-17T15:55:42.375Z,16.55
2019-05-17T15:58:12.351Z,15.83
2019-05-17T16:00:42.331Z,16.80
2019-05-17T16:03:12.438Z,16.93
2019-05-17T16:05:42.592Z,17.37
2019-05-17T16:08:12.814Z,17.62
2019-05-17T16:10:42.827Z,18.12
2019-05-17T16:13:12.580Z,17.82
2019-05-17T16:15:42.546Z,18.37
2019-05-17T16:18:12.674Z,18.23
2019-05-17T16:20:42.551Z,17.93
2019-05-17T16:23:12.697Z,18.87
2019-05-17T16:25:42.845Z,18.15
2019-05-17T16:28:13.187Z,18.95
2019-05-17T16:30:42.731Z,18.27
2019-05-17T16:33:12.818Z,19.12
2019-05-17T16:35:42.919Z,18.27
2019-05-17T16:38:13.118Z,17.95
2019-05-17T16:40:43.076Z,18.02
2019-05-17T16:43:17.958Z,19.15
2019-05-17T16:45:44.097Z,19.30
2019-05-17T16:48:13.528Z,18.27
2019-05-17T16:50:42.957Z,19.07
2019-05-17T16:53:12.999Z,17.40
2019-05-17T16:55:42.998Z,18.77
2019-05-17T16:58:13.010Z,19.90
2019-05-17T17:00:44.626Z,19.27
2019-05-17T17:03:14.077Z,20.43
2019-05-17T17:05:43.467Z,19.63
2019-05-17T17:08:13.601Z,20.90
2019-05-17T17:10:43.275Z,20.57
2019-05-17T17:13:13.633Z,19.00
2019-05-17T17:15:43.319Z,20.35
2019-05-17T17:18:13.560Z,20.43
2019-05-17T17:20:43.636Z,19.95
2019-05-17T17:23:13.422Z,20.08
2019-05-17T17:25:43.495Z,20.62
2019-05-17T17:28:13.533Z,19.50
2019-05-17T17:30:43.510Z,21.50
2019-05-17T17:33:13.512Z,22.30
2019-05-17T17:35:43.896Z,21.40
2019-05-17T17:38:13.577Z,21.12
2019-05-17T17:40:43.700Z,21.80
2019-05-17T17:43:15.250Z,20.07
2019-05-17T17:45:44.646Z,21.62
2019-05-17T17:48:14.088Z,20.83
2019-05-17T17:50:44.708Z,20.15
2019-05-17T17:53:14.082Z,19.60
2019-05-17T17:55:44.277Z,19.67
2019-05-17T17:58:14.060Z,16.90
2019-05-17T18:00:44.272Z,17.75
2019-05-17T18:03:14.141Z,18.45
2019-05-17T18:05:44.267Z,18.90
2019-05-17T18:08:14.295Z,24.00
2019-05-17T18:10:46.543Z,23.45
2019-05-17T18:13:15.868Z,23.27
2019-05-17T18:15:46.155Z,23.07
2019-05-17T18:18:16.210Z,23.93
2019-05-17T18:20:45.669Z,22.73
2019-05-17T18:23:15.034Z,21.67
2019-05-17T18:25:44.573Z,22.87
2019-05-17T18:28:14.573Z,22.75
2019-05-17T18:30:44.968Z,20.57
2019-05-17T18:33:15.880Z,22.25
2019-05-17T18:35:45.648Z,23.10
2019-05-17T18:38:19.189Z,22.10
2019-05-17T18:40:48.585Z,21.93
2019-05-17T18:43:18.208Z,21.47
2019-05-17T18:45:47.938Z,22.97
2019-05-17T18:48:17.510Z,21.80
2019-05-17T18:50:47.237Z,21.17
2019-05-17T18:53:17.428Z,22.63
2019-05-17T18:55:47.086Z,22.03
2019-05-17T18:58:16.407Z,22.13
2019-05-17T19:00:46.438Z,21.47
2019-05-17T19:03:16.120Z,21.77
2019-05-17T19:05:45.539Z,22.00
2019-05-17T19:08:15.358Z,21.52
2019-05-17T19:10:45.590Z,20.92
2019-05-17T19:13:15.508Z,22.22
2019-05-17T19:15:46.335Z,22.20
2019-05-17T19:18:15.777Z,23.17
2019-05-17T19:20:45.647Z,23.10
2019-05-17T19:23:15.535Z,22.93
2019-05-17T19:25:45.605Z,23.62
2019-05-17T19:28:15.595Z,24.43
2019-05-17T19:30:45.750Z,22.70
2019-05-17T19:33:15.753Z,23.38
2019-05-17T19:35:46.183Z,23.76
2019-05-17T19:38:16.722Z,21.45
2019-05-17T19:40:46.661Z,23.83
2019-05-17T19:43:16.588Z,24.57
2019-05-17T19:45:46.800Z,25.82
2019-05-17T19:48:19.760Z,22.33
2019-05-17T19:50:48.491Z,24.83
2019-05-17T19:53:17.891Z,24.37
2019-05-17T19:55:47.262Z,21.60
2019-05-17T19:58:16.796Z,23.07
2019-05-17T20:00:46.972Z,23.57
2019-05-17T20:03:16.768Z,22.80
2019-05-17T20:05:46.773Z,23.02
2019-05-17T20:08:16.805Z,25.40
2019-05-17T20:10:47.097Z,24.67
2019-05-17T20:13:16.937Z,26.12
2019-05-17T20:15:46.944Z,25.10
2019-05-17T20:18:16.988Z,25.25
2019-05-17T20:20:46.971Z,25.30
2019-05-17T20:23:17.017Z,26.27
2019-05-17T20:25:47.065Z,27.60
2019-05-17T20:28:17.055Z,24.63
2019-05-17T20:30:47.445Z,27.13
2019-05-17T20:33:17.591Z,25.02
2019-05-17T20:35:47.974Z,25.55
2019-05-17T20:38:17.743Z,27.15
2019-05-17T20:40:48.074Z,28.07
2019-05-17T20:43:17.706Z,27.43
2019-05-17T20:45:47.789Z,23.77
2019-05-17T20:48:17.902Z,27.30
2019-05-17T20:50:48.133Z,26.80
2019-05-17T20:53:19.303Z,27.27
2019-05-17T20:55:48.783Z,25.00
2019-05-17T20:58:18.158Z,24.13
2019-05-17T21:00:48.086Z,24.52
2019-05-17T21:03:18.279Z,26.97
2019-05-17T21:05:48.091Z,26.42
2019-05-17T21:08:18.106Z,25.97
2019-05-17T21:10:48.128Z,25.68
2019-05-17T21:13:18.132Z,23.00
2019-05-17T21:15:48.353Z,23.87
2019-05-17T21:18:18.261Z,24.47
2019-05-17T21:20:48.495Z,27.10
2019-05-17T21:23:18.514Z,24.60
2019-05-17T21:25:48.635Z,25.17
2019-05-17T21:28:18.648Z,25.90
2019-05-17T21:30:48.678Z,24.52
2019-05-17T21:33:19.001Z,26.97
2019-05-17T21:35:48.711Z,24.40
2019-05-17T21:38:18.793Z,22.30
2019-05-17T21:40:48.833Z,23.22
2019-05-17T21:43:18.849Z,22.22
2019-05-17T21:46:02.669Z,26.97
2019-05-17T21:48:19.970Z,24.53
2019-05-17T21:50:49.340Z,22.07
2019-05-17T21:53:19.064Z,22.58
2019-05-17T21:55:49.245Z,23.00
2019-05-17T21:58:20.487Z,26.57
2019-05-17T22:01:17.188Z,27.07
2019-05-17T22:03:46.767Z,22.47
2019-05-17T22:06:16.295Z,22.47
2019-05-17T22:08:45.886Z,23.17
2019-05-17T22:11:15.264Z,23.37
2019-05-17T22:13:44.965Z,28.83
2019-05-17T22:16:19.444Z,22.87
2019-05-17T22:18:45.818Z,24.03
2019-05-17T22:21:15.211Z,21.97
2019-05-17T22:24:04.036Z,26.30
2019-05-17T22:26:33.394Z,24.10
2019-05-17T22:29:02.765Z,26.70
2019-05-17T22:31:32.154Z,28.63
2019-05-17T22:34:01.602Z,25.02
2019-05-17T22:36:30.980Z,23.73
2019-05-17T22:39:00.353Z,23.92
2019-05-17T22:41:29.737Z,23.83
2019-05-17T22:43:59.112Z,22.03
2019-05-17T22:46:35.920Z,22.27
2019-05-17T22:48:59.613Z,23.63
2019-05-17T22:51:29.000Z,21.40
2019-05-17T22:53:58.367Z,23.77
2019-05-17T22:56:27.753Z,22.47
2019-05-17T22:58:57.132Z,22.97
2019-05-17T23:01:26.595Z,20.87
2019-05-17T23:03:55.993Z,22.40
2019-05-17T23:06:25.382Z,23.37
2019-05-17T23:08:54.755Z,22.02
2019-05-17T23:11:24.710Z,23.43
2019-05-17T23:13:54.091Z,21.50
2019-05-17T23:16:23.462Z,23.00
2019-05-17T23:19:08.334Z,22.50
2019-05-17T23:21:38.252Z,22.70
2019-05-17T23:24:08.154Z,21.30
2019-05-17T23:26:37.534Z,19.07
2019-05-17T23:29:07.045Z,19.10
2019-05-17T23:31:36.671Z,21.33
2019-05-17T23:34:06.131Z,20.47
2019-05-17T23:36:35.498Z,20.37
2019-05-17T23:39:06.511Z,20.93
2019-05-17T23:41:35.865Z,18.70
2019-05-17T23:44:05.305Z,18.93
2019-05-17T23:46:34.681Z,19.93
2019-05-17T23:49:04.070Z,16.87
2019-05-17T23:51:33.437Z,19.17
2019-05-17T23:54:02.828Z,18.13
2019-05-17T23:56:32.520Z,19.62
2019-05-17T23:59:02.141Z,19.83
